Data for 06/18/2005

Time Sea-Level Adjusted Pressure Absolute Pressure Temperature Relative Humidity Dew Point   
(mb) (inHg) (mb) (inHg) (C) (F) (%) (C) (F)
00:05 1012 29.88 841 24.83 9.8 49.6 74 5.4 41.8
00:10 1012 29.88 841 24.83 9.7 49.4 76 5.7 42.3
00:15 1012 29.88 841 24.83 9.4 49 76 5.4 41.7
00:20 1012 29.88 841 24.83 9.3 48.8 77 5.5 41.9
00:25 1012 29.88 841 24.83 9.4 48.9 76 5.5 41.9
00:30 1012 29.88 841 24.83 9.6 49.2 74 5.3 41.5
00:35 1012 29.88 841 24.83 9.6 49.3 75 5.4 41.7
00:40 1012 29.88 841 24.83 9.7 49.4 75 5.5 41.8
00:45 1012 29.88 841 24.83 9.7 49.5 74 5.3 41.6
00:50 1012 29.88 841 24.83 9.5 49.2 75 5.3 41.5
00:55 1012 29.88 841 24.83 9.4 49 73 5 40.9
01:00 1011 29.85 841 24.83 9.6 49.2 72 4.8 40.7
01:05 1012 29.88 841 24.83 9.6 49.3 72 4.9 40.9
01:10 1012 29.88 841 24.83 9.8 49.6 73 5.2 41.4
01:15 1012 29.88 841 24.83 10 49.9 73 5.4 41.7
01:20 1012 29.88 841 24.83 10 50 68 4.5 40.1
01:25 1012 29.88 841 24.83 10 50 69 4.6 40.3
01:30 1012 29.88 841 24.83 10.1 50.2 69 4.6 40.3
01:35 1012 29.88 841 24.83 10.1 50.2 69 4.7 40.5
01:40 1012 29.88 841 24.83 10.1 50.2 68 4.5 40.1
01:45 1012 29.88 841 24.83 10.1 50.2 66 4.1 39.5
01:50 1012 29.88 841 24.83 10.3 50.5 67 4.4 39.8
01:55 1012 29.88 841 24.83 10.3 50.6 68 4.7 40.4
02:00 1012 29.88 841 24.83 10.2 50.4 68 4.6 40.3
02:05 1012 29.88 841 24.83 10.2 50.3 69 4.9 40.8
02:10 1012 29.88 841 24.83 10.1 50.2 69 4.6 40.3
02:15 1012 29.88 841 24.83 10.2 50.3 69 4.8 40.6
02:20 1012 29.88 841 24.83 10.1 50.1 70 4.9 40.8
02:25 1012 29.88 842 24.86 10 49.9 71 5 40.9
02:30 1012 29.88 842 24.86 9.9 49.8 71 5 40.9
02:35 1013 29.91 842 24.86 9.9 49.8 71 5 41
02:40 1013 29.91 842 24.86 10 49.9 71 5 41
02:45 1012 29.88 842 24.86 10 49.9 72 5.1 41.2
02:50 1012 29.88 841 24.83 9.9 49.8 72 5.1 41.2
02:55 1012 29.88 842 24.86 9.9 49.9 70 4.7 40.4
03:00 1013 29.91 842 24.86 10 50 70 4.8 40.7
03:05 1012 29.88 842 24.86 10 50 71 5.1 41.2
03:10 1012 29.88 842 24.86 10 50 71 5 41
03:15 1012 29.88 841 24.83 10 50 70 4.9 40.8
03:20 1012 29.88 841 24.83 9.9 49.9 71 4.9 40.8
03:25 1012 29.88 841 24.83 9.9 49.8 70 4.8 40.6
03:30 1012 29.88 841 24.83 9.9 49.8 71 4.9 40.8
03:35 1012 29.88 841 24.83 9.6 49.3 71 4.6 40.3
03:40 1012 29.88 841 24.83 9.5 49.1 73 4.9 40.8
03:45 1012 29.88 841 24.83 9.6 49.3 74 5.1 41.2
03:50 1012 29.88 841 24.83 9.5 49 74 5.1 41.2
03:55 1012 29.88 841 24.83 9.4 49 75 5.2 41.3
04:00 1012 29.88 841 24.83 9.4 48.9 75 5.1 41.3
04:05 1012 29.88 841 24.83 9.4 48.9 75 5.2 41.3
04:10 1012 29.88 841 24.83 9.4 48.9 76 5.3 41.6
04:15 1012 29.88 841 24.83 9.3 48.7 74 5 41
04:20 1012 29.88 841 24.83 9.4 48.8 70 4.2 39.6
04:25 1012 29.88 841 24.83 9.5 49.1 72 4.8 40.7
04:30 1012 29.88 841 24.83 9.6 49.3 74 5.2 41.4
04:35 1012 29.88 842 24.86 9.7 49.5 73 5.2 41.4
04:40 1012 29.88 842 24.86 9.8 49.6 76 5.7 42.2
04:45 1012 29.88 842 24.86 9.7 49.4 75 5.6 42
04:50 1012 29.88 842 24.86 9.7 49.4 75 5.4 41.8
04:55 1012 29.88 842 24.86 9.7 49.4 76 5.6 42
05:00 1012 29.88 842 24.86 9.7 49.5 74 5.4 41.7
05:05 1012 29.88 842 24.86 9.8 49.6 75 5.5 41.9
05:10 1012 29.88 841 24.83 9.7 49.5 76 5.7 42.3
05:15 1012 29.88 841 24.83 9.7 49.4 74 5.2 41.4
05:20 1012 29.88 841 24.83 9.6 49.2 77 5.8 42.4
05:25 1012 29.88 841 24.83 9.4 48.8 79 5.9 42.6
05:30 1012 29.88 841 24.83 9.2 48.6 78 5.6 42
05:35 1012 29.88 841 24.83 9.2 48.6 79 5.7 42.3
05:40 1012 29.88 841 24.83 9.2 48.5 77 5.5 41.8
05:45 1012 29.88 841 24.83 9.2 48.6 77 5.4 41.7
05:50 1012 29.88 841 24.83 9.2 48.6 74 4.9 40.8
05:55 1012 29.88 841 24.83 9.4 48.9 71 4.3 39.8
06:00 1012 29.88 841 24.83 9.7 49.4 72 5 40.9
06:05 1012 29.88 841 24.83 9.9 49.8 73 5.3 41.6
06:10 1012 29.88 841 24.83 10.4 50.8 67 4.6 40.3
06:15 1012 29.88 841 24.83 11 51.8 69 5.5 41.9
06:20 1012 29.88 841 24.83 11.4 52.5 69 6 42.9
06:25 1012 29.88 842 24.86 11.3 52.4 69 5.9 42.7
06:30 1012 29.88 841 24.83 11.2 52.2 69 5.9 42.6
06:35 1012 29.88 842 24.86 11.4 52.5 70 6.1 42.9
06:40 1012 29.88 842 24.86 11.4 52.5 70 6.1 43
06:45 1012 29.88 842 24.86 11.5 52.6 69 5.9 42.7
06:50 1012 29.88 842 24.86 11.9 53.4 66 5.8 42.4
06:55 1012 29.88 842 24.86 11.5 52.7 68 5.9 42.6
07:00 1012 29.88 842 24.86 11.5 52.7 69 6 42.8
07:05 1012 29.88 842 24.86 11.8 53.2 66 5.7 42.3
07:10 1012 29.88 842 24.86 12.3 54.1 66 6.1 43
07:15 1012 29.88 841 24.83 12.5 54.5 64 6 42.8
07:20 1012 29.88 842 24.86 12.5 54.4 64 6 42.8
07:25 1013 29.91 842 24.86 11.9 53.4 67 6.1 42.9
07:30 1013 29.91 842 24.86 11.7 53 67 5.8 42.4
07:35 1013 29.91 842 24.86 11.9 53.5 66 5.8 42.4
07:40 1013 29.91 842 24.86 12.2 53.9 66 6 42.9
07:45 1013 29.91 842 24.86 12.1 53.8 65 5.7 42.2
07:50 1013 29.91 842 24.86 11.7 53.1 68 6.1 43
07:55 1013 29.91 842 24.86 11.9 53.5 67 6.1 42.9
08:00 1013 29.91 842 24.86 12.3 54.1 66 6.3 43.3
08:05 1013 29.91 842 24.86 12.7 54.9 65 6.4 43.6
08:10 1013 29.91 842 24.86 13.1 55.5 64 6.4 43.6
08:15 1013 29.91 842 24.86 13.3 55.9 64 6.6 43.8
08:20 1013 29.91 842 24.86 13.3 55.9 65 6.9 44.3
08:25 1013 29.91 842 24.86 13.3 55.9 66 7.2 45
08:30 1013 29.91 842 24.86 13.4 56.2 61 6 42.9
08:35 1013 29.91 842 24.86 13.5 56.3 62 6.4 43.5
08:40 1013 29.91 842 24.86 13.9 57 61 6.5 43.7
08:45 1013 29.91 842 24.86 13.9 57 61 6.6 44
08:50 1013 29.91 842 24.86 13.6 56.4 60 6 42.8
08:55 1013 29.91 842 24.86 13.5 56.3 62 6.3 43.4
09:00 1013 29.91 842 24.86 13.7 56.7 59 5.9 42.6
09:05 1013 29.91 842 24.86 13.6 56.4 61 6.2 43.1
09:10 1013 29.91 842 24.86 13.1 55.5 62 6.1 42.9
09:15 1013 29.91 842 24.86 12.9 55.3 63 6.1 42.9
09:20 1013 29.91 842 24.86 13.4 56 59 5.6 42.1
09:25 1013 29.91 842 24.86 14.2 57.6 57 5.8 42.4
09:30 1013 29.91 842 24.86 14 57.3 60 6.3 43.4
09:35 1013 29.91 842 24.86 14.3 57.8 58 6.2 43.1
09:40 1013 29.91 842 24.86 14.6 58.3 56 5.9 42.7
09:45 1013 29.91 842 24.86 13.8 56.8 59 5.9 42.6
09:50 1013 29.91 842 24.86 14.2 57.6 59 6.3 43.4
09:55 1013 29.91 842 24.86 14.8 58.6 55 5.9 42.7
10:00 1013 29.91 842 24.86 14.6 58.3 57 6.3 43.4
10:05 1013 29.91 842 24.86 15 58.9 55 6.2 43.1
10:10 1013 29.91 842 24.86 15.3 59.6 55 6.3 43.4
10:15 1012 29.88 842 24.86 15.4 59.7 54 6.1 43
10:20 1012 29.88 842 24.86 15.1 59.2 55 6.2 43.1
10:25 1012 29.88 842 24.86 15.3 59.5 53 5.7 42.3
10:30 1012 29.88 842 24.86 15.7 60.3 53 6.4 43.5
10:35 1012 29.88 842 24.86 15.6 60.1 53 6.1 43
10:40 1012 29.88 842 24.86 16.3 61.3 51 6.2 43.2
10:45 1012 29.88 842 24.86 16.6 61.8 51 6.4 43.5
10:50 1012 29.88 842 24.86 16.1 61.1 52 6.4 43.5
10:55 1012 29.88 842 24.86 15.2 59.3 51 5.2 41.3
11:00 1012 29.88 842 24.86 16.3 61.3 47 5 41
11:05 1012 29.88 842 24.86 16.1 60.9 54 6.7 44.1
11:10 1012 29.88 842 24.86 15.8 60.4 52 6 42.8
11:15 1012 29.88 842 24.86 15.7 60.2 50 5.4 41.8
11:20 1012 29.88 842 24.86 15.9 60.7 49 5.2 41.4
11:25 1012 29.88 842 24.86 16.1 61 51 6.1 43
11:30 1012 29.88 842 24.86 16.2 61.2 48 5.4 41.8
11:35 1012 29.88 841 24.83 16.2 61.2 49 5.7 42.2
11:40 1012 29.88 841 24.83 15.6 60.1 50 5.2 41.3
11:45 1012 29.88 841 24.83 15.4 59.7 52 5.7 42.3
11:50 1012 29.88 842 24.86 15.4 59.7 55 6.6 43.8
11:55 1012 29.88 842 24.86 15.6 60.1 55 6.6 43.9
12:00 1012 29.88 842 24.86 15.7 60.3 56 7.2 44.9
12:05 1012 29.88 842 24.86 15.4 59.8 56 6.8 44.3
12:10 1012 29.88 842 24.86 15.3 59.6 57 7 44.6
12:15 1012 29.88 842 24.86 16.1 60.9 52 6.3 43.3
12:20 1012 29.88 841 24.83 16.1 61 52 6.3 43.3
12:25 1012 29.88 841 24.83 16.5 61.7 50 6.1 42.9
12:30 1012 29.88 841 24.83 16.9 62.4 48 6 42.9
12:35 1012 29.88 841 24.83 17.1 62.7 47 5.9 42.6
12:40 1012 29.88 841 24.83 17 62.6 50 6.7 44.1
12:45 1012 29.88 841 24.83 16.5 61.7 50 6.1 43
12:50 1012 29.88 841 24.83 16.4 61.6 52 6.6 43.9
12:55 1012 29.88 841 24.83 16.6 61.9 51 6.5 43.6
13:00 1012 29.88 841 24.83 17.6 63.6 48 6.5 43.8
13:05 1012 29.88 841 24.83 18 64.4 47 6.5 43.7
13:10 1012 29.88 841 24.83 17.9 64.3 47 6.7 44
13:15 1012 29.88 841 24.83 17.8 64 49 6.9 44.4
13:20 1012 29.88 841 24.83 17.9 64.2 47 6.6 43.8
13:25 1012 29.88 841 24.83 18.1 64.5 49 7.3 45.1
13:30 1012 29.88 841 24.83 19.1 66.3 46 7.2 44.9
13:35 1012 29.88 841 24.83 18.5 65.3 51 8.3 47
13:40 1012 29.88 841 24.83 17.9 64.3 47 6.7 44.1
13:45 1012 29.88 841 24.83 18.4 65 48 7.2 45
13:50 1012 29.88 841 24.83 18.3 65 48 7.1 44.9
13:55 1012 29.88 841 24.83 18.6 65.5 47 7.1 44.8
14:00 1012 29.88 841 24.83 19.3 66.8 43 6.7 44.1
14:05 1012 29.88 841 24.83 18.9 66.1 45 6.9 44.4
14:10 1012 29.88 841 24.83 19.3 66.7 45 7.1 44.8
14:15 1012 29.88 841 24.83 19.3 66.7 44 6.8 44.2
14:20 1012 29.88 841 24.83 19.2 66.5 43 6.5 43.7
14:25 1012 29.88 841 24.83 18.8 65.8 43 6.2 43.1
14:30 1012 29.88 841 24.83 19.3 66.8 44 7 44.6
14:35 1012 29.88 841 24.83 19.5 67.1 43 6.9 44.4
14:40 1012 29.88 841 24.83 19.3 66.7 44 6.8 44.2
14:45 1012 29.88 841 24.83 19.3 66.7 43 6.5 43.8
14:50 1012 29.88 841 24.83 19.8 67.6 40 6 42.8
14:55 1012 29.88 841 24.83 20.2 68.4 42 7.2 44.9
15:00 1012 29.88 841 24.83 20.1 68.1 42 6.8 44.3
15:05 1012 29.88 841 24.83 19.9 67.8 41 6.5 43.7
15:10 1012 29.88 841 24.83 20.3 68.5 40 6.4 43.5
15:15 1012 29.88 841 24.83 19.7 67.5 43 7 44.5
15:20 1012 29.88 841 24.83 19.3 66.8 41 5.9 42.6
15:25 1012 29.88 841 24.83 19.9 67.7 41 6.3 43.4
15:30 1012 29.88 841 24.83 20.1 68.1 38 5.5 41.9
15:35 1012 29.88 841 24.83 19.6 67.2 41 6.2 43.1
15:40 1012 29.88 841 24.83 19.6 67.3 39 5.3 41.5
15:45 1012 29.88 841 24.83 20.1 68.2 37 5.1 41.2
15:50 1012 29.88 841 24.83 20.2 68.3 38 5.4 41.8
15:55 1012 29.88 841 24.83 20 68.1 38 5.4 41.8
16:00 1012 29.88 841 24.83 20.1 68.2 39 6 42.7
16:05 1012 29.88 841 24.83 20.4 68.8 37 5.5 41.8
16:10 1012 29.88 841 24.83 20.8 69.4 37 5.9 42.5
16:15 1012 29.88 841 24.83 20.6 69 37 5.7 42.2
16:20 1012 29.88 841 24.83 21 69.8 37 5.8 42.4
16:25 1012 29.88 841 24.83 20.4 68.7 38 5.8 42.5
16:30 1012 29.88 842 24.86 19.5 67 40 5.7 42.3
16:35 1012 29.88 842 24.86 19.4 67 42 6.3 43.3
16:40 1012 29.88 842 24.86 19 66.3 43 6.2 43.2
16:45 1012 29.88 842 24.86 18.7 65.6 44 6.2 43.2
16:50 1013 29.91 842 24.86 18.7 65.7 44 6.3 43.4
16:55 1013 29.91 842 24.86 18.6 65.5 46 6.9 44.4
17:00 1013 29.91 842 24.86 18.4 65 45 6.5 43.6
17:05 1013 29.91 842 24.86 18.2 64.7 47 6.8 44.2
17:10 1013 29.91 842 24.86 18.2 64.7 46 6.6 43.9
17:15 1013 29.91 842 24.86 17.6 63.8 49 7.1 44.7
17:20 1013 29.91 842 24.86 17.2 63 50 6.7 44.1
17:25 1013 29.91 842 24.86 17.6 63.7 49 6.8 44.2
17:30 1013 29.91 842 24.86 18 64.3 48 6.8 44.2
17:35 1013 29.91 843 24.89 17.7 63.8 51 7.4 45.4
17:40 1014 29.94 843 24.89 17.2 63 53 7.7 45.8
17:45 1014 29.94 843 24.89 17.1 62.8 51 6.9 44.4
17:50 1014 29.94 843 24.89 17 62.6 50 6.8 44.2
17:55 1014 29.94 843 24.89 17.2 63 49 6.6 43.8
18:00 1014 29.94 843 24.89 17.7 63.8 48 6.7 44.1
18:05 1014 29.94 843 24.89 17.9 64.2 47 6.5 43.7
18:10 1014 29.94 843 24.89 18.3 64.9 44 6.1 43
18:15 1014 29.94 843 24.89 18.7 65.7 43 6 42.8
18:20 1014 29.94 843 24.89 18.8 65.9 42 5.9 42.7
18:25 1014 29.94 843 24.89 18.7 65.7 44 6.4 43.6
18:30 1014 29.94 843 24.89 18.3 65 44 6.2 43.1
18:35 1014 29.94 843 24.89 18.5 65.3 44 6 42.8
18:40 1014 29.94 843 24.89 18.7 65.6 43 6 42.8
18:45 1014 29.94 843 24.89 18.6 65.5 43 5.8 42.5
18:50 1014 29.94 843 24.89 18.6 65.5 43 5.8 42.5
18:55 1014 29.94 843 24.89 17.5 63.5 46 5.9 42.6
19:00 1014 29.94 843 24.89 17.1 62.8 46 5.5 41.9
19:05 1014 29.94 843 24.89 16.9 62.4 46 5.4 41.8
19:10 1014 29.94 843 24.89 16.9 62.4 46 5.5 41.8
19:15 1014 29.94 843 24.89 17.1 62.8 46 5.3 41.6
19:20 1014 29.94 843 24.89 17 62.5 45 5.2 41.3
19:25 1014 29.94 843 24.89 17.6 63.6 42 4.8 40.6
19:30 1014 29.94 843 24.89 18.1 64.5 43 5.3 41.5
19:35 1014 29.94 844 24.92 18 64.3 43 5.3 41.5
19:40 1015 29.97 844 24.92 18 64.4 43 5.5 41.9
19:45 1015 29.97 844 24.92 18.1 64.5 44 5.6 42.1
19:50 1015 29.97 844 24.92 17.6 63.6 48 6.5 43.7
19:55 1015 29.97 844 24.92 16.3 61.3 52 6.5 43.7
20:00 1015 29.97 844 24.92 15.7 60.2 54 6.5 43.7
20:05 1015 29.97 844 24.92 15.2 59.4 55 6.4 43.5
20:10 1015 29.97 844 24.92 14.8 58.7 57 6.3 43.4
20:15 1015 29.97 844 24.92 14.8 58.7 57 6.6 43.9
20:20 1015 29.97 844 24.92 14.8 58.6 56 6.2 43.1
20:25 1015 29.97 844 24.92 14.8 58.6 55 6 42.8
20:30 1015 29.97 845 24.95 14.5 58 56 5.9 42.7
20:35 1015 29.97 845 24.95 14.6 58.3 56 6 42.7
20:40 1015 29.97 845 24.95 14.4 57.9 57 6 42.8
20:45 1016 30 845 24.95 14.5 58 56 5.8 42.4
20:50 1016 30 845 24.95 14.1 57.3 62 6.9 44.3
20:55 1016 30 845 24.95 13.3 55.9 63 6.4 43.5
21:00 1016 30 845 24.95 13.4 56.2 61 6.2 43.2
21:05 1016 30 845 24.95 13.4 56.1 66 7.3 45.2
21:10 1016 30 845 24.95 12.5 54.5 68 6.9 44.4
21:15 1016 30 845 24.95 12 53.5 67 6.1 42.9
21:20 1016 30 845 24.95 12.3 54.2 65 6 42.8
21:25 1016 30 845 24.95 12.4 54.2 64 5.8 42.4
21:30 1016 30 845 24.95 12.4 54.3 65 6 42.9
21:35 1016 30 845 24.95 12.3 54.2 64 5.8 42.4
21:40 1016 30 845 24.95 12.4 54.4 64 5.9 42.7
21:45 1016 30 845 24.95 12.4 54.2 64 5.7 42.3
21:50 1016 30 845 24.95 12.2 53.9 65 5.8 42.4
21:55 1016 30 845 24.95 12.1 53.7 67 6.3 43.3
22:00 1016 30 846 24.98 11.8 53.2 66 5.8 42.4
22:05 1016 30 846 24.98 11.6 52.8 67 5.7 42.2
22:10 1017 30.03 846 24.98 11.6 52.8 68 5.9 42.6
22:15 1017 30.03 846 24.98 11.3 52.3 67 5.4 41.8
22:20 1017 30.03 846 24.98 11.4 52.5 67 5.6 42
22:25 1017 30.03 846 24.98 11.1 52.1 68 5.5 41.9
22:30 1017 30.03 846 24.98 10.6 51.1 67 4.7 40.5
22:35 1017 30.03 846 24.98 11.2 52.2 65 4.9 40.8
22:40 1017 30.03 846 24.98 11.4 52.5 65 5 41.1
22:45 1017 30.03 846 24.98 11.4 52.4 65 5 41
22:50 1017 30.03 846 24.98 10.9 51.6 68 5.2 41.3
22:55 1017 30.03 846 24.98 10.7 51.2 66 4.7 40.5
23:00 1017 30.03 846 24.98 10.7 51.2 68 5.1 41.2
23:05 1017 30.03 846 24.98 10.5 50.9 68 4.9 40.8
23:10 1017 30.03 846 24.98 10.4 50.8 71 5.4 41.8
23:15 1017 30.03 846 24.98 9.9 49.9 73 5.4 41.7
23:20 1017 30.03 846 24.98 9.9 49.8 73 5.3 41.6
23:25 1017 30.03 846 24.98 9.9 49.8 73 5.3 41.5
23:30 1017 30.03 846 24.98 10 50 71 5 41
23:35 1017 30.03 846 24.98 10.3 50.5 70 5.2 41.3
23:40 1017 30.03 846 24.98 10.5 50.9 70 5.3 41.5
23:45 1017 30.03 846 24.98 10.5 50.9 69 5.1 41.2
23:50 1017 30.03 846 24.98 10.3 50.5 70 5.1 41.2
23:55 1017 30.03 847 25.01 10.1 50.3 70 4.9 40.9
24:00 1017 30.03 847 25.01 10.2 50.4 70 5.1 41.2